sensor_id;sensor_type;location;lat;lon;timestamp;pressure;altitude;pressure_sealevel;temperature;humidity
25080;BME280;13071;48.868;9.996;2023-06-26T00:01:25;96490.22;;;18.10;63.89
25080;BME280;13071;48.868;9.996;2023-06-26T00:03:54;96485.91;;;18.09;64.07
25080;BME280;13071;48.868;9.996;2023-06-26T00:06:21;96494.94;;;18.13;63.43
25080;BME280;13071;48.868;9.996;2023-06-26T00:08:49;96499.69;;;18.20;63.96
25080;BME280;13071;48.868;9.996;2023-06-26T00:11:16;96491.84;;;18.19;64.66
25080;BME280;13071;48.868;9.996;2023-06-26T00:13:43;96497.19;;;18.01;65.14
25080;BME280;13071;48.868;9.996;2023-06-26T00:16:11;96499.47;;;17.92;65.52
25080;BME280;13071;48.868;9.996;2023-06-26T00:18:37;96494.03;;;17.95;65.12
25080;BME280;13071;48.868;9.996;2023-06-26T00:21:04;96494.03;;;17.95;64.99
25080;BME280;13071;48.868;9.996;2023-06-26T00:23:30;96495.91;;;17.84;65.40
25080;BME280;13071;48.868;9.996;2023-06-26T00:25:58;96490.78;;;17.79;65.75
25080;BME280;13071;48.868;9.996;2023-06-26T00:28:26;96493.91;;;17.81;65.96
25080;BME280;13071;48.868;9.996;2023-06-26T00:30:52;96491.97;;;17.82;65.93
25080;BME280;13071;48.868;9.996;2023-06-26T00:33:20;96493.16;;;17.81;65.98
25080;BME280;13071;48.868;9.996;2023-06-26T00:35:47;96490.31;;;17.70;66.25
25080;BME280;13071;48.868;9.996;2023-06-26T00:38:13;96491.06;;;17.67;66.89
25080;BME280;13071;48.868;9.996;2023-06-26T00:40:41;96497.72;;;17.66;66.70
25080;BME280;13071;48.868;9.996;2023-06-26T00:43:07;96489.38;;;17.55;67.22
25080;BME280;13071;48.868;9.996;2023-06-26T00:45:34;96487.50;;;17.59;67.03
25080;BME280;13071;48.868;9.996;2023-06-26T00:48:01;96496.13;;;17.65;66.47
25080;BME280;13071;48.868;9.996;2023-06-26T00:50:29;96496.41;;;17.56;66.61
25080;BME280;13071;48.868;9.996;2023-06-26T00:52:56;96499.16;;;17.56;66.60
25080;BME280;13071;48.868;9.996;2023-06-26T00:55:25;96504.69;;;17.60;66.88
25080;BME280;13071;48.868;9.996;2023-06-26T00:57:52;96502.75;;;17.60;66.96
25080;BME280;13071;48.868;9.996;2023-06-26T01:00:20;96510.47;;;17.51;66.86
25080;BME280;13071;48.868;9.996;2023-06-26T01:02:46;96511.16;;;17.41;67.18
25080;BME280;13071;48.868;9.996;2023-06-26T01:05:13;96507.19;;;17.39;67.56
25080;BME280;13071;48.868;9.996;2023-06-26T01:07:48;96501.72;;;17.35;68.11
25080;BME280;13071;48.868;9.996;2023-06-26T01:10:14;96504.34;;;17.24;68.50
25080;BME280;13071;48.868;9.996;2023-06-26T01:12:42;96503.91;;;17.22;68.79
25080;BME280;13071;48.868;9.996;2023-06-26T01:15:09;96502.72;;;17.20;68.52
25080;BME280;13071;48.868;9.996;2023-06-26T01:17:37;96497.72;;;17.29;68.40
25080;BME280;13071;48.868;9.996;2023-06-26T01:20:05;96490.38;;;17.37;68.03
25080;BME280;13071;48.868;9.996;2023-06-26T01:22:37;96488.75;;;17.32;68.18
25080;BME280;13071;48.868;9.996;2023-06-26T01:25:15;96495.69;;;17.19;69.02
25080;BME280;13071;48.868;9.996;2023-06-26T01:27:46;96489.50;;;17.25;69.00
25080;BME280;13071;48.868;9.996;2023-06-26T01:30:14;96480.44;;;17.18;68.77
25080;BME280;13071;48.868;9.996;2023-06-26T01:32:42;96475.00;;;17.21;68.67
25080;BME280;13071;48.868;9.996;2023-06-26T01:35:09;96475.84;;;17.25;67.83
25080;BME280;13071;48.868;9.996;2023-06-26T01:37:37;96471.50;;;17.24;68.08
25080;BME280;13071;48.868;9.996;2023-06-26T01:40:04;96473.91;;;17.30;67.99
25080;BME280;13071;48.868;9.996;2023-06-26T01:42:31;96467.22;;;17.27;67.84
25080;BME280;13071;48.868;9.996;2023-06-26T01:45:02;96468.81;;;17.28;68.14
25080;BME280;13071;48.868;9.996;2023-06-26T01:47:34;96463.72;;;17.26;67.77
25080;BME280;13071;48.868;9.996;2023-06-26T01:50:07;96467.19;;;17.23;67.84
25080;BME280;13071;48.868;9.996;2023-06-26T01:52:41;96462.38;;;17.10;67.97
25080;BME280;13071;48.868;9.996;2023-06-26T01:55:15;96463.53;;;17.09;68.52
25080;BME280;13071;48.868;9.996;2023-06-26T01:57:44;96456.91;;;17.10;69.07
25080;BME280;13071;48.868;9.996;2023-06-26T02:00:14;96461.19;;;17.07;68.97
25080;BME280;13071;48.868;9.996;2023-06-26T02:02:43;96466.63;;;17.04;68.62
25080;BME280;13071;48.868;9.996;2023-06-26T02:05:09;96470.56;;;17.06;68.67
25080;BME280;13071;48.868;9.996;2023-06-26T02:07:36;96476.63;;;16.89;68.97
25080;BME280;13071;48.868;9.996;2023-06-26T02:10:03;96463.31;;;16.88;69.20
25080;BME280;13071;48.868;9.996;2023-06-26T02:12:30;96465.16;;;16.76;69.55
25080;BME280;13071;48.868;9.996;2023-06-26T02:14:56;96473.69;;;16.71;69.74
25080;BME280;13071;48.868;9.996;2023-06-26T02:17:24;96463.94;;;16.74;69.87
25080;BME280;13071;48.868;9.996;2023-06-26T02:19:51;96467.84;;;16.73;69.97
25080;BME280;13071;48.868;9.996;2023-06-26T02:22:17;96467.41;;;16.67;70.12
25080;BME280;13071;48.868;9.996;2023-06-26T02:24:44;96460.19;;;16.56;70.24
25080;BME280;13071;48.868;9.996;2023-06-26T02:27:11;96468.22;;;16.41;71.40
25080;BME280;13071;48.868;9.996;2023-06-26T02:29:38;96466.22;;;16.38;71.76
25080;BME280;13071;48.868;9.996;2023-06-26T02:32:06;96458.78;;;16.35;71.96
25080;BME280;13071;48.868;9.996;2023-06-26T02:34:34;96467.00;;;16.39;71.96
25080;BME280;13071;48.868;9.996;2023-06-26T02:37:01;96466.53;;;16.33;71.84
25080;BME280;13071;48.868;9.996;2023-06-26T02:39:27;96455.84;;;16.18;72.66
25080;BME280;13071;48.868;9.996;2023-06-26T02:41:54;96465.69;;;16.26;72.29
25080;BME280;13071;48.868;9.996;2023-06-26T02:44:21;96462.16;;;16.25;72.58
25080;BME280;13071;48.868;9.996;2023-06-26T02:46:47;96466.03;;;16.24;72.23
25080;BME280;13071;48.868;9.996;2023-06-26T02:49:14;96463.63;;;16.19;72.31
25080;BME280;13071;48.868;9.996;2023-06-26T02:51:42;96465.16;;;16.17;72.79
25080;BME280;13071;48.868;9.996;2023-06-26T02:54:08;96468.25;;;16.15;72.81
25080;BME280;13071;48.868;9.996;2023-06-26T02:56:35;96466.75;;;16.18;72.72
25080;BME280;13071;48.868;9.996;2023-06-26T02:59:01;96467.47;;;16.15;72.81
25080;BME280;13071;48.868;9.996;2023-06-26T03:01:28;96459.19;;;16.08;73.06
25080;BME280;13071;48.868;9.996;2023-06-26T03:03:54;96457.31;;;16.12;73.00
25080;BME280;13071;48.868;9.996;2023-06-26T03:06:21;96459.28;;;16.15;72.77
25080;BME280;13071;48.868;9.996;2023-06-26T03:08:49;96460.06;;;16.15;72.98
25080;BME280;13071;48.868;9.996;2023-06-26T03:11:16;96454.28;;;16.20;72.36
25080;BME280;13071;48.868;9.996;2023-06-26T03:13:42;96451.13;;;16.18;72.22
25080;BME280;13071;48.868;9.996;2023-06-26T03:16:09;96451.56;;;16.20;72.78
25080;BME280;13071;48.868;9.996;2023-06-26T03:18:35;96452.66;;;16.16;72.97
25080;BME280;13071;48.868;9.996;2023-06-26T03:21:02;96445.41;;;16.27;72.59
25080;BME280;13071;48.868;9.996;2023-06-26T03:23:29;96450.38;;;16.18;72.56
25080;BME280;13071;48.868;9.996;2023-06-26T03:25:57;96452.63;;;16.12;72.47
25080;BME280;13071;48.868;9.996;2023-06-26T03:28:23;96455.69;;;16.07;72.67
25080;BME280;13071;48.868;9.996;2023-06-26T03:30:50;96451.38;;;16.06;73.02
25080;BME280;13071;48.868;9.996;2023-06-26T03:33:16;96447.22;;;16.16;72.70
25080;BME280;13071;48.868;9.996;2023-06-26T03:35:43;96457.69;;;16.14;72.63
25080;BME280;13071;48.868;9.996;2023-06-26T03:38:09;96453.88;;;16.18;72.49
25080;BME280;13071;48.868;9.996;2023-06-26T03:40:36;96453.31;;;16.35;72.14
25080;BME280;13071;48.868;9.996;2023-06-26T03:43:04;96453.34;;;16.39;71.79
25080;BME280;13071;48.868;9.996;2023-06-26T03:45:30;96456.16;;;16.42;71.65
25080;BME280;13071;48.868;9.996;2023-06-26T03:47:57;96457.94;;;16.31;71.66
25080;BME280;13071;48.868;9.996;2023-06-26T03:50:24;96457.66;;;16.40;71.35
25080;BME280;13071;48.868;9.996;2023-06-26T03:52:50;96450.72;;;16.76;70.50
25080;BME280;13071;48.868;9.996;2023-06-26T03:55:19;96450.09;;;17.34;68.78
25080;BME280;13071;48.868;9.996;2023-06-26T03:57:46;96448.63;;;17.91;68.31
25080;BME280;13071;48.868;9.996;2023-06-26T04:00:15;96449.94;;;19.08;64.80
25080;BME280;13071;48.868;9.996;2023-06-26T04:02:42;96445.22;;;20.15;62.06
25080;BME280;13071;48.868;9.996;2023-06-26T04:05:08;96444.00;;;21.24;58.92
25080;BME280;13071;48.868;9.996;2023-06-26T04:07:36;96445.81;;;22.00;56.66
25080;BME280;13071;48.868;9.996;2023-06-26T04:10:04;96451.97;;;22.83;54.01
25080;BME280;13071;48.868;9.996;2023-06-26T04:12:31;96445.84;;;23.55;53.18
25080;BME280;13071;48.868;9.996;2023-06-26T04:14:57;96448.53;;;24.29;51.40
25080;BME280;13071;48.868;9.996;2023-06-26T04:17:25;96445.44;;;24.27;50.70
25080;BME280;13071;48.868;9.996;2023-06-26T04:19:52;96448.91;;;25.10;49.16
25080;BME280;13071;48.868;9.996;2023-06-26T04:22:18;96448.13;;;25.61;47.35
25080;BME280;13071;48.868;9.996;2023-06-26T04:24:46;96451.13;;;26.15;47.75
25080;BME280;13071;48.868;9.996;2023-06-26T04:27:12;96450.03;;;26.13;47.16
25080;BME280;13071;48.868;9.996;2023-06-26T04:29:40;96440.94;;;25.96;47.91
25080;BME280;13071;48.868;9.996;2023-06-26T04:32:06;96441.16;;;26.63;47.50
25080;BME280;13071;48.868;9.996;2023-06-26T04:34:34;96446.09;;;26.43;48.54
25080;BME280;13071;48.868;9.996;2023-06-26T04:37:06;96444.22;;;26.24;48.19
25080;BME280;13071;48.868;9.996;2023-06-26T04:39:34;96442.53;;;26.42;47.93
25080;BME280;13071;48.868;9.996;2023-06-26T04:42:02;96450.50;;;26.69;45.48
25080;BME280;13071;48.868;9.996;2023-06-26T04:44:28;96441.47;;;26.94;44.74
25080;BME280;13071;48.868;9.996;2023-06-26T04:46:55;96444.63;;;27.21;45.65
25080;BME280;13071;48.868;9.996;2023-06-26T04:49:22;96444.09;;;27.64;46.71
25080;BME280;13071;48.868;9.996;2023-06-26T04:51:49;96435.69;;;28.15;45.64
25080;BME280;13071;48.868;9.996;2023-06-26T04:54:16;96440.38;;;27.92;46.71
25080;BME280;13071;48.868;9.996;2023-06-26T04:56:43;96446.97;;;27.35;46.62
25080;BME280;13071;48.868;9.996;2023-06-26T04:59:12;96440.31;;;27.33;47.33
25080;BME280;13071;48.868;9.996;2023-06-26T05:01:40;96440.34;;;28.18;46.76
25080;BME280;13071;48.868;9.996;2023-06-26T05:04:07;96438.38;;;28.62;46.02
25080;BME280;13071;48.868;9.996;2023-06-26T05:06:33;96435.13;;;28.76;45.09
25080;BME280;13071;48.868;9.996;2023-06-26T05:09:01;96434.44;;;28.50;46.03
25080;BME280;13071;48.868;9.996;2023-06-26T05:11:28;96428.31;;;28.55;45.70
25080;BME280;13071;48.868;9.996;2023-06-26T05:13:54;96437.19;;;27.43;48.03
25080;BME280;13071;48.868;9.996;2023-06-26T05:16:21;96437.59;;;26.91;49.30
25080;BME280;13071;48.868;9.996;2023-06-26T05:18:47;96431.97;;;27.45;49.45
25080;BME280;13071;48.868;9.996;2023-06-26T05:21:15;96428.03;;;28.41;48.04
25080;BME280;13071;48.868;9.996;2023-06-26T05:23:42;96427.84;;;28.57;47.67
25080;BME280;13071;48.868;9.996;2023-06-26T05:26:12;96429.41;;;28.58;48.04
25080;BME280;13071;48.868;9.996;2023-06-26T05:28:39;96437.16;;;28.63;47.08
25080;BME280;13071;48.868;9.996;2023-06-26T05:31:06;96431.84;;;28.34;45.79
25080;BME280;13071;48.868;9.996;2023-06-26T05:33:35;96434.25;;;27.98;46.44
25080;BME280;13071;48.868;9.996;2023-06-26T05:36:04;96433.94;;;27.83;46.59
25080;BME280;13071;48.868;9.996;2023-06-26T05:38:31;96437.19;;;27.69;46.52
25080;BME280;13071;48.868;9.996;2023-06-26T05:40:58;96434.75;;;27.58;47.46
25080;BME280;13071;48.868;9.996;2023-06-26T05:43:27;96431.75;;;27.27;48.27
25080;BME280;13071;48.868;9.996;2023-06-26T05:45:53;96432.75;;;27.21;48.02
25080;BME280;13071;48.868;9.996;2023-06-26T05:48:20;96433.06;;;26.97;49.38
25080;BME280;13071;48.868;9.996;2023-06-26T05:50:47;96429.81;;;26.86;49.84
25080;BME280;13071;48.868;9.996;2023-06-26T05:53:14;96427.75;;;26.74;49.04
25080;BME280;13071;48.868;9.996;2023-06-26T05:55:41;96432.47;;;26.48;48.65
25080;BME280;13071;48.868;9.996;2023-06-26T05:58:10;96435.69;;;26.31;48.17
25080;BME280;13071;48.868;9.996;2023-06-26T06:00:38;96442.28;;;26.20;47.89
25080;BME280;13071;48.868;9.996;2023-06-26T06:03:05;96434.41;;;26.19;47.35
25080;BME280;13071;48.868;9.996;2023-06-26T06:05:32;96436.78;;;26.04;47.60
25080;BME280;13071;48.868;9.996;2023-06-26T06:07:58;96435.47;;;25.93;47.01
25080;BME280;13071;48.868;9.996;2023-06-26T06:10:25;96435.75;;;25.98;47.28
25080;BME280;13071;48.868;9.996;2023-06-26T06:12:51;96424.13;;;26.03;47.14
25080;BME280;13071;48.868;9.996;2023-06-26T06:15:19;96428.38;;;26.08;47.05
25080;BME280;13071;48.868;9.996;2023-06-26T06:17:47;96434.78;;;26.05;47.33
25080;BME280;13071;48.868;9.996;2023-06-26T06:20:14;96439.97;;;26.03;47.23
25080;BME280;13071;48.868;9.996;2023-06-26T06:22:40;96428.16;;;26.15;47.26
25080;BME280;13071;48.868;9.996;2023-06-26T06:25:08;96437.25;;;26.15;47.40
25080;BME280;13071;48.868;9.996;2023-06-26T06:27:34;96432.06;;;26.17;47.99
25080;BME280;13071;48.868;9.996;2023-06-26T06:30:01;96430.50;;;26.33;47.79
25080;BME280;13071;48.868;9.996;2023-06-26T06:32:28;96434.84;;;26.34;47.54
25080;BME280;13071;48.868;9.996;2023-06-26T06:34:56;96435.28;;;26.32;47.71
25080;BME280;13071;48.868;9.996;2023-06-26T06:37:22;96430.66;;;26.42;47.73
25080;BME280;13071;48.868;9.996;2023-06-26T06:39:49;96433.25;;;26.49;48.53
25080;BME280;13071;48.868;9.996;2023-06-26T06:42:15;96438.38;;;26.63;47.63
25080;BME280;13071;48.868;9.996;2023-06-26T06:44:42;96427.97;;;26.80;48.10
25080;BME280;13071;48.868;9.996;2023-06-26T06:47:08;96437.97;;;26.77;46.98
25080;BME280;13071;48.868;9.996;2023-06-26T06:49:35;96438.13;;;26.86;46.81
25080;BME280;13071;48.868;9.996;2023-06-26T06:52:04;96433.78;;;26.85;46.91
25080;BME280;13071;48.868;9.996;2023-06-26T06:54:30;96441.63;;;27.03;46.91
25080;BME280;13071;48.868;9.996;2023-06-26T06:56:57;96438.50;;;27.01;46.77
25080;BME280;13071;48.868;9.996;2023-06-26T06:59:23;96441.72;;;26.99;46.49
25080;BME280;13071;48.868;9.996;2023-06-26T07:01:50;96432.59;;;26.86;46.67
25080;BME280;13071;48.868;9.996;2023-06-26T07:04:17;96438.03;;;26.90;47.14
25080;BME280;13071;48.868;9.996;2023-06-26T07:06:43;96436.94;;;27.00;46.78
25080;BME280;13071;48.868;9.996;2023-06-26T07:09:11;96441.50;;;27.06;46.79
25080;BME280;13071;48.868;9.996;2023-06-26T07:11:38;96434.81;;;27.04;45.89
25080;BME280;13071;48.868;9.996;2023-06-26T07:14:04;96434.63;;;27.24;45.90
25080;BME280;13071;48.868;9.996;2023-06-26T07:16:31;96431.84;;;27.11;45.44
25080;BME280;13071;48.868;9.996;2023-06-26T07:18:58;96437.28;;;27.02;45.56
25080;BME280;13071;48.868;9.996;2023-06-26T07:21:24;96438.50;;;27.14;45.79
25080;BME280;13071;48.868;9.996;2023-06-26T07:23:51;96442.31;;;27.32;46.18
25080;BME280;13071;48.868;9.996;2023-06-26T07:26:19;96447.91;;;27.58;46.09
25080;BME280;13071;48.868;9.996;2023-06-26T07:28:47;96439.09;;;27.72;45.55
25080;BME280;13071;48.868;9.996;2023-06-26T07:31:14;96448.06;;;27.88;44.64
25080;BME280;13071;48.868;9.996;2023-06-26T07:33:42;96444.19;;;27.86;45.75
25080;BME280;13071;48.868;9.996;2023-06-26T07:36:08;96442.50;;;27.88;45.31
25080;BME280;13071;48.868;9.996;2023-06-26T07:38:35;96443.84;;;27.97;45.29
25080;BME280;13071;48.868;9.996;2023-06-26T07:41:02;96446.38;;;28.04;45.70
25080;BME280;13071;48.868;9.996;2023-06-26T07:43:30;96450.13;;;28.22;44.54
25080;BME280;13071;48.868;9.996;2023-06-26T07:45:57;96447.75;;;28.33;44.73
25080;BME280;13071;48.868;9.996;2023-06-26T07:48:24;96442.41;;;28.39;44.91
25080;BME280;13071;48.868;9.996;2023-06-26T07:50:51;96444.53;;;28.35;44.16
25080;BME280;13071;48.868;9.996;2023-06-26T07:53:18;96443.25;;;28.49;43.99
25080;BME280;13071;48.868;9.996;2023-06-26T07:55:45;96436.66;;;28.55;44.89
25080;BME280;13071;48.868;9.996;2023-06-26T07:58:11;96439.00;;;28.79;44.74
25080;BME280;13071;48.868;9.996;2023-06-26T08:00:40;96435.63;;;29.05;44.01
25080;BME280;13071;48.868;9.996;2023-06-26T08:03:06;96443.00;;;28.99;42.77
25080;BME280;13071;48.868;9.996;2023-06-26T08:05:33;96443.91;;;28.96;43.22
25080;BME280;13071;48.868;9.996;2023-06-26T08:07:59;96436.53;;;29.02;43.59
25080;BME280;13071;48.868;9.996;2023-06-26T08:10:28;96440.22;;;28.99;42.10
25080;BME280;13071;48.868;9.996;2023-06-26T08:12:55;96433.19;;;29.16;42.53
25080;BME280;13071;48.868;9.996;2023-06-26T08:15:22;96433.97;;;29.17;42.86
25080;BME280;13071;48.868;9.996;2023-06-26T08:17:50;96433.38;;;29.22;41.79
25080;BME280;13071;48.868;9.996;2023-06-26T08:20:16;96434.38;;;29.06;41.51
25080;BME280;13071;48.868;9.996;2023-06-26T08:22:44;96437.72;;;29.23;42.75
25080;BME280;13071;48.868;9.996;2023-06-26T08:25:13;96436.13;;;29.35;42.60
25080;BME280;13071;48.868;9.996;2023-06-26T08:27:39;96437.84;;;29.50;42.42
25080;BME280;13071;48.868;9.996;2023-06-26T08:30:07;96427.22;;;29.58;42.24
25080;BME280;13071;48.868;9.996;2023-06-26T08:32:33;96430.66;;;29.71;42.26
25080;BME280;13071;48.868;9.996;2023-06-26T08:35:01;96430.97;;;29.73;42.35
25080;BME280;13071;48.868;9.996;2023-06-26T08:37:28;96428.28;;;29.21;43.75
25080;BME280;13071;48.868;9.996;2023-06-26T08:39:54;96415.53;;;29.90;41.82
25080;BME280;13071;48.868;9.996;2023-06-26T08:42:21;96424.06;;;29.96;42.03
25080;BME280;13071;48.868;9.996;2023-06-26T08:44:47;96417.75;;;30.14;41.40
25080;BME280;13071;48.868;9.996;2023-06-26T08:47:14;96421.00;;;30.03;40.25
25080;BME280;13071;48.868;9.996;2023-06-26T08:49:46;96413.72;;;30.15;41.51
25080;BME280;13071;48.868;9.996;2023-06-26T08:52:17;96417.28;;;30.06;40.03
25080;BME280;13071;48.868;9.996;2023-06-26T08:54:51;96418.38;;;30.09;40.94
25080;BME280;13071;48.868;9.996;2023-06-26T08:57:20;96416.81;;;30.17;41.28
25080;BME280;13071;48.868;9.996;2023-06-26T08:59:47;96415.44;;;30.12;40.92
25080;BME280;13071;48.868;9.996;2023-06-26T09:02:14;96417.44;;;30.21;40.41
25080;BME280;13071;48.868;9.996;2023-06-26T09:04:41;96409.84;;;30.21;41.51
25080;BME280;13071;48.868;9.996;2023-06-26T09:07:07;96407.38;;;30.23;40.56
25080;BME280;13071;48.868;9.996;2023-06-26T09:09:35;96404.13;;;30.34;40.89
25080;BME280;13071;48.868;9.996;2023-06-26T09:12:03;96412.78;;;30.36;40.46
25080;BME280;13071;48.868;9.996;2023-06-26T09:14:30;96412.03;;;30.26;40.86
25080;BME280;13071;48.868;9.996;2023-06-26T09:16:57;96412.19;;;30.32;39.87
25080;BME280;13071;48.868;9.996;2023-06-26T09:19:23;96412.06;;;30.63;40.93
25080;BME280;13071;48.868;9.996;2023-06-26T09:21:50;96407.88;;;30.58;41.28
25080;BME280;13071;48.868;9.996;2023-06-26T09:24:17;96409.88;;;30.58;41.04
25080;BME280;13071;48.868;9.996;2023-06-26T09:26:45;96408.78;;;30.46;42.37
25080;BME280;13071;48.868;9.996;2023-06-26T09:29:13;96411.28;;;30.62;40.64
25080;BME280;13071;48.868;9.996;2023-06-26T09:31:40;96408.91;;;30.79;40.75
25080;BME280;13071;48.868;9.996;2023-06-26T09:34:08;96413.41;;;30.85;39.84
25080;BME280;13071;48.868;9.996;2023-06-26T09:36:35;96404.44;;;30.72;39.88
25080;BME280;13071;48.868;9.996;2023-06-26T09:39:02;96396.63;;;30.85;40.23
25080;BME280;13071;48.868;9.996;2023-06-26T09:41:30;96405.19;;;30.82;40.28
25080;BME280;13071;48.868;9.996;2023-06-26T09:44:01;96404.09;;;30.79;39.61
25080;BME280;13071;48.868;9.996;2023-06-26T09:46:30;96405.81;;;30.77;39.41
25080;BME280;13071;48.868;9.996;2023-06-26T09:49:01;96403.81;;;30.59;39.38
25080;BME280;13071;48.868;9.996;2023-06-26T09:51:29;96397.47;;;30.59;39.34
25080;BME280;13071;48.868;9.996;2023-06-26T09:53:56;96397.16;;;30.38;39.94
25080;BME280;13071;48.868;9.996;2023-06-26T09:56:23;96394.31;;;29.93;40.25
25080;BME280;13071;48.868;9.996;2023-06-26T09:58:50;96394.97;;;30.52;40.25
25080;BME280;13071;48.868;9.996;2023-06-26T10:01:19;96389.19;;;30.92;39.75
25080;BME280;13071;48.868;9.996;2023-06-26T10:03:45;96390.25;;;31.12;38.57
25080;BME280;13071;48.868;9.996;2023-06-26T10:06:13;96391.50;;;31.02;38.52
25080;BME280;13071;48.868;9.996;2023-06-26T10:08:41;96387.03;;;29.37;40.46
25080;BME280;13071;48.868;9.996;2023-06-26T10:11:12;96385.53;;;29.45;41.09
25080;BME280;13071;48.868;9.996;2023-06-26T10:13:42;96384.31;;;29.65;41.37
25080;BME280;13071;48.868;9.996;2023-06-26T10:16:11;96391.53;;;30.29;39.75
25080;BME280;13071;48.868;9.996;2023-06-26T10:18:41;96384.28;;;30.50;38.84
25080;BME280;13071;48.868;9.996;2023-06-26T10:21:09;96384.25;;;30.77;38.20
25080;BME280;13071;48.868;9.996;2023-06-26T10:23:39;96383.41;;;31.04;38.45
25080;BME280;13071;48.868;9.996;2023-06-26T10:26:08;96375.44;;;31.21;38.78
25080;BME280;13071;48.868;9.996;2023-06-26T10:28:36;96379.53;;;31.44;37.85
25080;BME280;13071;48.868;9.996;2023-06-26T10:31:04;96387.97;;;30.20;39.87
25080;BME280;13071;48.868;9.996;2023-06-26T10:33:33;96387.78;;;29.87;40.31
25080;BME280;13071;48.868;9.996;2023-06-26T10:36:15;96381.81;;;30.52;38.87
25080;BME280;13071;48.868;9.996;2023-06-26T10:38:50;96384.59;;;29.48;40.31
25080;BME280;13071;48.868;9.996;2023-06-26T10:41:20;96389.97;;;29.92;40.22
25080;BME280;13071;48.868;9.996;2023-06-26T10:43:51;96386.97;;;29.28;41.09
25080;BME280;13071;48.868;9.996;2023-06-26T10:46:26;96382.63;;;28.96;42.19
25080;BME280;13071;48.868;9.996;2023-06-26T10:48:58;96392.63;;;29.46;41.80
25080;BME280;13071;48.868;9.996;2023-06-26T10:51:27;96396.88;;;29.60;41.27
25080;BME280;13071;48.868;9.996;2023-06-26T10:53:54;96395.34;;;29.68;41.23
25080;BME280;13071;48.868;9.996;2023-06-26T10:56:40;96392.47;;;30.08;39.84
25080;BME280;13071;48.868;9.996;2023-06-26T10:59:15;96385.06;;;30.51;40.74
25080;BME280;13071;48.868;9.996;2023-06-26T11:01:43;96390.75;;;30.01;40.43
25080;BME280;13071;48.868;9.996;2023-06-26T11:04:10;96389.53;;;30.02;40.38
25080;BME280;13071;48.868;9.996;2023-06-26T11:06:38;96397.69;;;29.88;41.61
25080;BME280;13071;48.868;9.996;2023-06-26T11:09:10;96385.34;;;30.71;40.01
25080;BME280;13071;48.868;9.996;2023-06-26T11:11:56;96399.47;;;29.54;41.56
25080;BME280;13071;48.868;9.996;2023-06-26T11:14:31;96391.69;;;29.89;41.62
25080;BME280;13071;48.868;9.996;2023-06-26T11:16:58;96390.94;;;30.16;40.72
25080;BME280;13071;48.868;9.996;2023-06-26T11:19:26;96386.28;;;30.68;39.27
25080;BME280;13071;48.868;9.996;2023-06-26T11:21:59;96384.47;;;31.16;38.87
25080;BME280;13071;48.868;9.996;2023-06-26T11:24:26;96382.97;;;31.39;39.27
25080;BME280;13071;48.868;9.996;2023-06-26T11:26:53;96389.97;;;30.83;41.37
25080;BME280;13071;48.868;9.996;2023-06-26T11:29:19;96385.53;;;31.27;40.01
25080;BME280;13071;48.868;9.996;2023-06-26T11:31:46;96386.56;;;30.15;41.29
25080;BME280;13071;48.868;9.996;2023-06-26T11:34:13;96372.38;;;31.10;42.00
25080;BME280;13071;48.868;9.996;2023-06-26T11:36:41;96378.56;;;30.54;41.60
25080;BME280;13071;48.868;9.996;2023-06-26T11:39:13;96381.03;;;30.24;43.08
25080;BME280;13071;48.868;9.996;2023-06-26T11:41:40;96377.28;;;30.73;41.50
25080;BME280;13071;48.868;9.996;2023-06-26T11:44:08;96388.84;;;31.08;41.85
25080;BME280;13071;48.868;9.996;2023-06-26T11:46:35;96379.13;;;30.39;43.15
25080;BME280;13071;48.868;9.996;2023-06-26T11:49:03;96386.69;;;30.84;42.03
25080;BME280;13071;48.868;9.996;2023-06-26T11:51:30;96388.22;;;30.95;40.19
25080;BME280;13071;48.868;9.996;2023-06-26T11:53:56;96369.16;;;31.02;40.35
25080;BME280;13071;48.868;9.996;2023-06-26T11:56:25;96375.22;;;31.43;40.91
25080;BME280;13071;48.868;9.996;2023-06-26T11:58:59;96386.53;;;31.06;40.81
25080;BME280;13071;48.868;9.996;2023-06-26T12:01:27;96376.38;;;31.60;39.91
25080;BME280;13071;48.868;9.996;2023-06-26T12:03:59;96380.63;;;31.46;39.40
25080;BME280;13071;48.868;9.996;2023-06-26T12:06:27;96384.59;;;31.63;39.28
25080;BME280;13071;48.868;9.996;2023-06-26T12:08:54;96381.97;;;30.49;41.71
25080;BME280;13071;48.868;9.996;2023-06-26T12:11:22;96385.63;;;29.91;42.52
25080;BME280;13071;48.868;9.996;2023-06-26T12:13:51;96386.25;;;30.77;42.32
25080;BME280;13071;48.868;9.996;2023-06-26T12:16:18;96387.50;;;30.76;40.97
25080;BME280;13071;48.868;9.996;2023-06-26T12:18:45;96395.44;;;30.59;41.53
25080;BME280;13071;48.868;9.996;2023-06-26T12:21:27;96395.41;;;30.77;41.50
25080;BME280;13071;48.868;9.996;2023-06-26T12:23:58;96379.69;;;30.89;41.25
25080;BME280;13071;48.868;9.996;2023-06-26T12:26:26;96395.97;;;31.18;40.68
25080;BME280;13071;48.868;9.996;2023-06-26T12:29:01;96395.25;;;31.41;40.65
25080;BME280;13071;48.868;9.996;2023-06-26T12:31:28;96388.44;;;31.33;40.59
25080;BME280;13071;48.868;9.996;2023-06-26T12:33:54;96388.66;;;31.20;41.62
25080;BME280;13071;48.868;9.996;2023-06-26T12:36:21;96394.56;;;31.22;40.44
25080;BME280;13071;48.868;9.996;2023-06-26T12:38:48;96395.16;;;31.26;40.91
25080;BME280;13071;48.868;9.996;2023-06-26T12:41:15;96384.25;;;31.38;41.57
25080;BME280;13071;48.868;9.996;2023-06-26T12:43:42;96391.03;;;30.95;42.66
25080;BME280;13071;48.868;9.996;2023-06-26T12:46:10;96385.81;;;30.78;44.41
25080;BME280;13071;48.868;9.996;2023-06-26T12:48:38;96392.50;;;31.32;43.00
25080;BME280;13071;48.868;9.996;2023-06-26T12:51:09;96387.72;;;31.14;42.70
25080;BME280;13071;48.868;9.996;2023-06-26T12:53:36;96397.59;;;30.73;45.08
25080;BME280;13071;48.868;9.996;2023-06-26T12:56:04;96384.06;;;30.90;44.29
25080;BME280;13071;48.868;9.996;2023-06-26T12:58:31;96386.66;;;30.94;43.66
25080;BME280;13071;48.868;9.996;2023-06-26T13:00:58;96391.06;;;30.76;44.20
25080;BME280;13071;48.868;9.996;2023-06-26T13:03:25;96389.56;;;30.57;43.63